sensor_id;sensor_type;location;lat;lon;timestamp;temperature;humidity
5850;DHT22;2951;47.712;9.400;2022-08-07T00:00:05;17.80;99.90
5850;DHT22;2951;47.712;9.400;2022-08-07T00:02:32;17.90;99.90
5850;DHT22;2951;47.712;9.400;2022-08-07T00:05:06;17.90;99.90
5850;DHT22;2951;47.712;9.400;2022-08-07T00:07:33;18.00;99.90
5850;DHT22;2951;47.712;9.400;2022-08-07T00:10:08;18.00;99.90
5850;DHT22;2951;47.712;9.400;2022-08-07T00:12:52;18.00;99.90
5850;DHT22;2951;47.712;9.400;2022-08-07T00:15:23;18.00;99.90
5850;DHT22;2951;47.712;9.400;2022-08-07T00:17:52;18.10;99.90
5850;DHT22;2951;47.712;9.400;2022-08-07T00:20:20;18.10;99.90
5850;DHT22;2951;47.712;9.400;2022-08-07T00:22:55;18.10;99.90
5850;DHT22;2951;47.712;9.400;2022-08-07T00:25:22;18.00;99.90
5850;DHT22;2951;47.712;9.400;2022-08-07T00:27:50;18.00;99.90
5850;DHT22;2951;47.712;9.400;2022-08-07T00:30:22;18.10;99.90
5850;DHT22;2951;47.712;9.400;2022-08-07T00:32:57;18.10;99.90
5850;DHT22;2951;47.712;9.400;2022-08-07T00:35:24;18.10;99.90
5850;DHT22;2951;47.712;9.400;2022-08-07T00:37:51;18.20;99.90
5850;DHT22;2951;47.712;9.400;2022-08-07T00:40:18;18.20;99.90
5850;DHT22;2951;47.712;9.400;2022-08-07T00:43:06;18.20;99.90
5850;DHT22;2951;47.712;9.400;2022-08-07T00:45:35;18.20;99.90
5850;DHT22;2951;47.712;9.400;2022-08-07T00:48:02;18.10;99.90
5850;DHT22;2951;47.712;9.400;2022-08-07T00:50:43;18.10;99.90
5850;DHT22;2951;47.712;9.400;2022-08-07T00:53:17;18.10;99.90
5850;DHT22;2951;47.712;9.400;2022-08-07T00:55:45;18.10;99.90
5850;DHT22;2951;47.712;9.400;2022-08-07T00:58:27;18.10;99.90
5850;DHT22;2951;47.712;9.400;2022-08-07T01:00:54;18.10;99.90
5850;DHT22;2951;47.712;9.400;2022-08-07T01:03:21;18.10;99.90
5850;DHT22;2951;47.712;9.400;2022-08-07T01:06:09;18.00;99.90
5850;DHT22;2951;47.712;9.400;2022-08-07T01:08:38;18.00;99.90
5850;DHT22;2951;47.712;9.400;2022-08-07T01:11:08;18.00;99.90
5850;DHT22;2951;47.712;9.400;2022-08-07T01:13:56;18.00;99.90
5850;DHT22;2951;47.712;9.400;2022-08-07T01:16:23;18.00;99.90
5850;DHT22;2951;47.712;9.400;2022-08-07T01:18:55;18.00;99.90
5850;DHT22;2951;47.712;9.400;2022-08-07T01:21:22;18.00;99.90
5850;DHT22;2951;47.712;9.400;2022-08-07T01:23:53;18.00;99.90
5850;DHT22;2951;47.712;9.400;2022-08-07T01:26:20;17.90;99.90
5850;DHT22;2951;47.712;9.400;2022-08-07T01:28:48;17.90;99.90
5850;DHT22;2951;47.712;9.400;2022-08-07T01:31:18;18.00;99.90
5850;DHT22;2951;47.712;9.400;2022-08-07T01:33:45;17.90;99.90
5850;DHT22;2951;47.712;9.400;2022-08-07T01:36:22;18.00;99.90
5850;DHT22;2951;47.712;9.400;2022-08-07T01:38:59;17.90;99.90
5850;DHT22;2951;47.712;9.400;2022-08-07T01:41:26;17.90;99.90
5850;DHT22;2951;47.712;9.400;2022-08-07T01:43:53;17.80;99.90
5850;DHT22;2951;47.712;9.400;2022-08-07T01:46:19;17.80;99.90
5850;DHT22;2951;47.712;9.400;2022-08-07T01:48:47;17.80;99.90
5850;DHT22;2951;47.712;9.400;2022-08-07T01:51:17;17.70;99.90
5850;DHT22;2951;47.712;9.400;2022-08-07T01:54:05;17.80;99.90
5850;DHT22;2951;47.712;9.400;2022-08-07T01:56:57;17.70;99.90
5850;DHT22;2951;47.712;9.400;2022-08-07T01:59:27;17.80;99.90
5850;DHT22;2951;47.712;9.400;2022-08-07T02:02:06;17.70;99.90
5850;DHT22;2951;47.712;9.400;2022-08-07T02:07:05;17.70;99.90
5850;DHT22;2951;47.712;9.400;2022-08-07T02:09:33;17.70;99.90
5850;DHT22;2951;47.712;9.400;2022-08-07T02:12:19;17.70;99.90
5850;DHT22;2951;47.712;9.400;2022-08-07T02:14:55;17.70;99.90
5850;DHT22;2951;47.712;9.400;2022-08-07T02:17:22;17.60;99.90
5850;DHT22;2951;47.712;9.400;2022-08-07T02:19:53;17.60;99.90
5850;DHT22;2951;47.712;9.400;2022-08-07T02:22:31;17.60;99.90
5850;DHT22;2951;47.712;9.400;2022-08-07T02:24:58;17.60;99.90
5850;DHT22;2951;47.712;9.400;2022-08-07T02:27:26;17.50;99.90
5850;DHT22;2951;47.712;9.400;2022-08-07T02:29:59;17.60;99.90
5850;DHT22;2951;47.712;9.400;2022-08-07T02:32:29;17.50;99.90
5850;DHT22;2951;47.712;9.400;2022-08-07T02:34:56;17.50;99.90
5850;DHT22;2951;47.712;9.400;2022-08-07T02:37:24;17.50;99.90
5850;DHT22;2951;47.712;9.400;2022-08-07T02:39:51;17.50;99.90
5850;DHT22;2951;47.712;9.400;2022-08-07T02:42:37;17.50;99.90
5850;DHT22;2951;47.712;9.400;2022-08-07T02:45:05;17.50;99.90
5850;DHT22;2951;47.712;9.400;2022-08-07T02:47:53;17.40;99.90
5850;DHT22;2951;47.712;9.400;2022-08-07T02:50:20;17.40;99.90
5850;DHT22;2951;47.712;9.400;2022-08-07T02:52:55;17.40;99.90
5850;DHT22;2951;47.712;9.400;2022-08-07T02:55:26;17.40;99.90
5850;DHT22;2951;47.712;9.400;2022-08-07T02:58:17;17.40;99.90
5850;DHT22;2951;47.712;9.400;2022-08-07T03:00:50;17.30;99.90
5850;DHT22;2951;47.712;9.400;2022-08-07T03:03:18;17.30;99.90
5850;DHT22;2951;47.712;9.400;2022-08-07T03:05:48;17.30;99.90
5850;DHT22;2951;47.712;9.400;2022-08-07T03:08:16;17.30;99.90
5850;DHT22;2951;47.712;9.400;2022-08-07T03:10:43;17.30;99.90
5850;DHT22;2951;47.712;9.400;2022-08-07T03:13:15;17.30;99.90
5850;DHT22;2951;47.712;9.400;2022-08-07T03:15:45;17.20;99.90
5850;DHT22;2951;47.712;9.400;2022-08-07T03:18:21;17.20;99.90
5850;DHT22;2951;47.712;9.400;2022-08-07T03:20:49;17.20;99.90
5850;DHT22;2951;47.712;9.400;2022-08-07T03:23:17;17.20;99.90
5850;DHT22;2951;47.712;9.400;2022-08-07T03:25:45;17.10;99.90
5850;DHT22;2951;47.712;9.400;2022-08-07T03:28:12;17.10;99.90
5850;DHT22;2951;47.712;9.400;2022-08-07T03:31:02;17.10;99.90
5850;DHT22;2951;47.712;9.400;2022-08-07T03:33:47;17.10;99.90
5850;DHT22;2951;47.712;9.400;2022-08-07T03:36:15;17.10;99.90
5850;DHT22;2951;47.712;9.400;2022-08-07T03:38:44;17.10;99.90
5850;DHT22;2951;47.712;9.400;2022-08-07T03:41:11;17.00;99.90
5850;DHT22;2951;47.712;9.400;2022-08-07T03:43:39;16.90;99.90
5850;DHT22;2951;47.712;9.400;2022-08-07T03:46:09;16.90;99.90
5850;DHT22;2951;47.712;9.400;2022-08-07T03:48:43;16.90;99.90
5850;DHT22;2951;47.712;9.400;2022-08-07T03:51:11;16.80;99.90
5850;DHT22;2951;47.712;9.400;2022-08-07T03:53:38;16.90;99.90
5850;DHT22;2951;47.712;9.400;2022-08-07T03:56:25;16.90;99.90
5850;DHT22;2951;47.712;9.400;2022-08-07T03:58:59;16.90;99.90
5850;DHT22;2951;47.712;9.400;2022-08-07T04:01:33;16.90;99.90
5850;DHT22;2951;47.712;9.400;2022-08-07T04:04:02;16.90;99.90
5850;DHT22;2951;47.712;9.400;2022-08-07T04:06:30;16.90;99.90
5850;DHT22;2951;47.712;9.400;2022-08-07T04:09:03;16.90;99.90
5850;DHT22;2951;47.712;9.400;2022-08-07T04:11:30;16.90;99.90
5850;DHT22;2951;47.712;9.400;2022-08-07T04:14:17;16.90;99.90
5850;DHT22;2951;47.712;9.400;2022-08-07T04:17:03;16.90;99.90
5850;DHT22;2951;47.712;9.400;2022-08-07T04:19:30;16.90;99.90
5850;DHT22;2951;47.712;9.400;2022-08-07T04:22:17;16.90;99.90
5850;DHT22;2951;47.712;9.400;2022-08-07T04:24:44;16.90;99.90
5850;DHT22;2951;47.712;9.400;2022-08-07T04:27:11;16.90;99.90
5850;DHT22;2951;47.712;9.400;2022-08-07T04:29:45;16.90;99.90
5850;DHT22;2951;47.712;9.400;2022-08-07T04:32:27;17.00;99.90
5850;DHT22;2951;47.712;9.400;2022-08-07T04:35:04;17.00;99.90
5850;DHT22;2951;47.712;9.400;2022-08-07T04:37:32;17.00;99.90
5850;DHT22;2951;47.712;9.400;2022-08-07T04:40:18;17.10;99.90
5850;DHT22;2951;47.712;9.400;2022-08-07T04:42:45;17.20;99.90
5850;DHT22;2951;47.712;9.400;2022-08-07T04:45:11;17.30;99.90
5850;DHT22;2951;47.712;9.400;2022-08-07T04:47:44;17.30;99.90
5850;DHT22;2951;47.712;9.400;2022-08-07T04:50:33;17.30;99.90
5850;DHT22;2951;47.712;9.400;2022-08-07T04:55:29;17.40;99.90
5850;DHT22;2951;47.712;9.400;2022-08-07T04:58:25;17.40;99.90
5850;DHT22;2951;47.712;9.400;2022-08-07T05:01:23;17.50;99.90
5850;DHT22;2951;47.712;9.400;2022-08-07T05:04:03;17.60;99.90
5850;DHT22;2951;47.712;9.400;2022-08-07T05:09:12;17.70;99.90
5850;DHT22;2951;47.712;9.400;2022-08-07T05:11:44;17.70;99.90
5850;DHT22;2951;47.712;9.400;2022-08-07T05:14:25;17.70;99.90
5850;DHT22;2951;47.712;9.400;2022-08-07T05:17:13;17.80;99.90
5850;DHT22;2951;47.712;9.400;2022-08-07T05:20:01;17.80;99.90
5850;DHT22;2951;47.712;9.400;2022-08-07T05:22:33;17.80;99.90
5850;DHT22;2951;47.712;9.400;2022-08-07T05:25:01;17.80;99.90
5850;DHT22;2951;47.712;9.400;2022-08-07T05:27:28;17.90;99.90
5850;DHT22;2951;47.712;9.400;2022-08-07T05:30:15;17.90;99.90
5850;DHT22;2951;47.712;9.400;2022-08-07T05:32:55;17.90;99.90
5850;DHT22;2951;47.712;9.400;2022-08-07T05:35:23;18.00;99.90
5850;DHT22;2951;47.712;9.400;2022-08-07T05:37:59;18.00;99.90
5850;DHT22;2951;47.712;9.400;2022-08-07T05:40:35;18.10;99.90
5850;DHT22;2951;47.712;9.400;2022-08-07T05:43:02;18.20;99.90
5850;DHT22;2951;47.712;9.400;2022-08-07T05:45:29;18.30;99.90
5850;DHT22;2951;47.712;9.400;2022-08-07T05:48:13;18.30;99.90
5850;DHT22;2951;47.712;9.400;2022-08-07T05:50:40;18.30;99.90
5850;DHT22;2951;47.712;9.400;2022-08-07T05:53:08;18.40;99.90
5850;DHT22;2951;47.712;9.400;2022-08-07T05:55:56;18.50;99.90
5850;DHT22;2951;47.712;9.400;2022-08-07T05:58:27;18.50;99.90
5850;DHT22;2951;47.712;9.400;2022-08-07T06:01:02;18.70;99.90
5850;DHT22;2951;47.712;9.400;2022-08-07T06:03:30;18.70;99.90
5850;DHT22;2951;47.712;9.400;2022-08-07T06:06:18;18.60;99.90
5850;DHT22;2951;47.712;9.400;2022-08-07T06:08:45;18.60;99.90
5850;DHT22;2951;47.712;9.400;2022-08-07T06:11:12;18.60;99.90
5850;DHT22;2951;47.712;9.400;2022-08-07T06:13:39;18.80;99.90
5850;DHT22;2951;47.712;9.400;2022-08-07T06:16:26;18.70;99.90
5850;DHT22;2951;47.712;9.400;2022-08-07T06:18:53;18.80;99.90
5850;DHT22;2951;47.712;9.400;2022-08-07T06:21:21;18.90;99.90
5850;DHT22;2951;47.712;9.400;2022-08-07T06:24:08;19.10;99.90
5850;DHT22;2951;47.712;9.400;2022-08-07T06:26:55;19.10;99.90
5850;DHT22;2951;47.712;9.400;2022-08-07T06:29:25;19.10;99.90
5850;DHT22;2951;47.712;9.400;2022-08-07T06:31:52;19.10;99.90
5850;DHT22;2951;47.712;9.400;2022-08-07T06:34:27;19.10;99.90
5850;DHT22;2951;47.712;9.400;2022-08-07T06:36:55;19.30;99.90
5850;DHT22;2951;47.712;9.400;2022-08-07T06:39:21;19.40;99.90
5850;DHT22;2951;47.712;9.400;2022-08-07T06:44:38;19.30;99.90
5850;DHT22;2951;47.712;9.400;2022-08-07T06:47:05;19.30;99.90
5850;DHT22;2951;47.712;9.400;2022-08-07T06:49:37;19.30;99.90
5850;DHT22;2951;47.712;9.400;2022-08-07T06:52:18;19.40;99.90
5850;DHT22;2951;47.712;9.400;2022-08-07T06:54:57;19.50;99.90
5850;DHT22;2951;47.712;9.400;2022-08-07T06:57:45;19.30;99.90
5850;DHT22;2951;47.712;9.400;2022-08-07T07:00:18;19.40;99.90
5850;DHT22;2951;47.712;9.400;2022-08-07T07:02:46;19.50;99.90
5850;DHT22;2951;47.712;9.400;2022-08-07T07:05:14;19.50;99.90
5850;DHT22;2951;47.712;9.400;2022-08-07T07:08:01;19.50;99.90
5850;DHT22;2951;47.712;9.400;2022-08-07T07:10:32;19.50;99.90
5850;DHT22;2951;47.712;9.400;2022-08-07T07:13:16;19.50;99.90
5850;DHT22;2951;47.712;9.400;2022-08-07T07:16:06;19.60;99.90
5850;DHT22;2951;47.712;9.400;2022-08-07T07:18:41;19.80;99.90
5850;DHT22;2951;47.712;9.400;2022-08-07T07:21:24;19.90;99.90
5850;DHT22;2951;47.712;9.400;2022-08-07T07:23:53;19.80;99.90
5850;DHT22;2951;47.712;9.400;2022-08-07T07:26:35;19.90;99.90
5850;DHT22;2951;47.712;9.400;2022-08-07T07:29:12;20.00;99.90
5850;DHT22;2951;47.712;9.400;2022-08-07T07:32:00;20.30;99.90
5850;DHT22;2951;47.712;9.400;2022-08-07T07:34:28;20.30;99.90
5850;DHT22;2951;47.712;9.400;2022-08-07T07:36:59;20.30;99.90
5850;DHT22;2951;47.712;9.400;2022-08-07T07:39:31;20.20;99.90
5850;DHT22;2951;47.712;9.400;2022-08-07T07:42:17;20.30;99.90
5850;DHT22;2951;47.712;9.400;2022-08-07T07:44:51;20.50;99.90
5850;DHT22;2951;47.712;9.400;2022-08-07T07:47:18;20.60;99.90
5850;DHT22;2951;47.712;9.400;2022-08-07T07:49:48;20.70;99.90
5850;DHT22;2951;47.712;9.400;2022-08-07T07:52:37;20.80;99.90
5850;DHT22;2951;47.712;9.400;2022-08-07T07:55:04;20.80;99.90
5850;DHT22;2951;47.712;9.400;2022-08-07T07:57:31;20.80;99.90
5850;DHT22;2951;47.712;9.400;2022-08-07T08:00:18;21.00;99.90
5850;DHT22;2951;47.712;9.400;2022-08-07T08:02:55;21.00;99.90
5850;DHT22;2951;47.712;9.400;2022-08-07T08:05:30;20.80;99.90
5850;DHT22;2951;47.712;9.400;2022-08-07T08:08:17;20.90;99.90
5850;DHT22;2951;47.712;9.400;2022-08-07T08:11:02;20.90;99.90
5850;DHT22;2951;47.712;9.400;2022-08-07T08:13:29;20.80;99.90
5850;DHT22;2951;47.712;9.400;2022-08-07T08:15:59;20.80;99.90
5850;DHT22;2951;47.712;9.400;2022-08-07T08:18:27;21.00;99.90
5850;DHT22;2951;47.712;9.400;2022-08-07T08:20:56;21.00;99.90
5850;DHT22;2951;47.712;9.400;2022-08-07T08:23:24;20.80;99.90
5850;DHT22;2951;47.712;9.400;2022-08-07T08:26:11;20.70;99.90
5850;DHT22;2951;47.712;9.400;2022-08-07T08:28:56;20.90;99.90
5850;DHT22;2951;47.712;9.400;2022-08-07T08:31:25;21.10;99.90
5850;DHT22;2951;47.712;9.400;2022-08-07T08:34:13;20.80;99.90
5850;DHT22;2951;47.712;9.400;2022-08-07T08:36:52;20.90;99.90
5850;DHT22;2951;47.712;9.400;2022-08-07T08:39:21;20.80;99.90
5850;DHT22;2951;47.712;9.400;2022-08-07T08:44:25;21.10;99.90
5850;DHT22;2951;47.712;9.400;2022-08-07T08:49:32;21.30;99.90
5850;DHT22;2951;47.712;9.400;2022-08-07T08:54:52;21.30;99.90
5850;DHT22;2951;47.712;9.400;2022-08-07T08:57:41;21.40;99.90
5850;DHT22;2951;47.712;9.400;2022-08-07T09:00:10;21.50;99.90
5850;DHT22;2951;47.712;9.400;2022-08-07T09:07:44;21.40;99.90
5850;DHT22;2951;47.712;9.400;2022-08-07T09:10:28;21.60;99.90
5850;DHT22;2951;47.712;9.400;2022-08-07T09:20:58;21.60;99.90
5850;DHT22;2951;47.712;9.400;2022-08-07T09:23:45;21.80;99.90
5850;DHT22;2951;47.712;9.400;2022-08-07T09:26:45;21.80;99.90
5850;DHT22;2951;47.712;9.400;2022-08-07T09:38:14;22.60;99.90
5850;DHT22;2951;47.712;9.400;2022-08-07T09:46:34;22.30;99.90
5850;DHT22;2951;47.712;9.400;2022-08-07T10:06:12;23.40;99.90
5850;DHT22;2951;47.712;9.400;2022-08-07T10:08:46;23.30;99.90
5850;DHT22;2951;47.712;9.400;2022-08-07T10:11:26;23.10;99.90
5850;DHT22;2951;47.712;9.400;2022-08-07T10:19:59;22.50;99.90
5850;DHT22;2951;47.712;9.400;2022-08-07T10:43:29;23.10;99.90
5850;DHT22;2951;47.712;9.400;2022-08-07T10:46:01;23.00;99.90
5850;DHT22;2951;47.712;9.400;2022-08-07T10:48:41;22.80;99.90
5850;DHT22;2951;47.712;9.400;2022-08-07T10:51:22;22.70;99.90
5850;DHT22;2951;47.712;9.400;2022-08-07T10:54:23;22.70;99.90
5850;DHT22;2951;47.712;9.400;2022-08-07T10:57:02;22.60;99.90
5850;DHT22;2951;47.712;9.400;2022-08-07T11:05:13;23.20;99.90
5850;DHT22;2951;47.712;9.400;2022-08-07T11:07:51;23.50;99.90
5850;DHT22;2951;47.712;9.400;2022-08-07T11:13:01;23.50;99.90
5850;DHT22;2951;47.712;9.400;2022-08-07T11:15:31;23.50;99.90
5850;DHT22;2951;47.712;9.400;2022-08-07T11:18:02;23.70;99.90
5850;DHT22;2951;47.712;9.400;2022-08-07T11:20:34;23.60;99.90
5850;DHT22;2951;47.712;9.400;2022-08-07T11:28:27;23.30;99.90
5850;DHT22;2951;47.712;9.400;2022-08-07T11:30:57;23.20;99.90
5850;DHT22;2951;47.712;9.400;2022-08-07T11:33:45;23.30;99.90
5850;DHT22;2951;47.712;9.400;2022-08-07T11:36:39;23.40;99.90
5850;DHT22;2951;47.712;9.400;2022-08-07T11:39:14;23.40;99.90
5850;DHT22;2951;47.712;9.400;2022-08-07T11:41:53;23.20;99.90
5850;DHT22;2951;47.712;9.400;2022-08-07T11:53:02;23.00;99.90
5850;DHT22;2951;47.712;9.400;2022-08-07T12:03:52;23.20;99.90
5850;DHT22;2951;47.712;9.400;2022-08-07T12:09:24;23.30;99.90
5850;DHT22;2951;47.712;9.400;2022-08-07T12:12:03;23.20;99.90
5850;DHT22;2951;47.712;9.400;2022-08-07T12:14:46;23.30;99.90
5850;DHT22;2951;47.712;9.400;2022-08-07T12:17:19;23.70;99.90
5850;DHT22;2951;47.712;9.400;2022-08-07T12:19:49;23.90;99.90
5850;DHT22;2951;47.712;9.400;2022-08-07T12:22:45;24.20;99.90
5850;DHT22;2951;47.712;9.400;2022-08-07T12:31:08;23.80;99.90
5850;DHT22;2951;47.712;9.400;2022-08-07T12:33:36;23.90;99.90
5850;DHT22;2951;47.712;9.400;2022-08-07T12:36:24;24.10;99.90
5850;DHT22;2951;47.712;9.400;2022-08-07T12:38:58;24.30;99.90
5850;DHT22;2951;47.712;9.400;2022-08-07T12:41:26;24.30;99.90
5850;DHT22;2951;47.712;9.400;2022-08-07T12:43:55;24.40;99.90
5850;DHT22;2951;47.712;9.400;2022-08-07T12:52:03;24.70;99.90
5850;DHT22;2951;47.712;9.400;2022-08-07T12:57:21;25.40;99.90
5850;DHT22;2951;47.712;9.400;2022-08-07T12:59:50;25.50;99.90
5850;DHT22;2951;47.712;9.400;2022-08-07T13:13:31;25.50;99.90
5850;DHT22;2951;47.712;9.400;2022-08-07T13:16:26;25.20;99.90
5850;DHT22;2951;47.712;9.400;2022-08-07T13:21:25;25.00;99.90
5850;DHT22;2951;47.712;9.400;2022-08-07T13:24:19;25.20;99.90
5850;DHT22;2951;47.712;9.400;2022-08-07T13:26:53;25.20;99.90
5850;DHT22;2951;47.712;9.400;2022-08-07T13:29:25;25.10;99.90
5850;DHT22;2951;47.712;9.400;2022-08-07T13:32:01;25.00;99.90
5850;DHT22;2951;47.712;9.400;2022-08-07T13:34:34;24.70;99.90
5850;DHT22;2951;47.712;9.400;2022-08-07T13:37:07;24.60;99.90
5850;DHT22;2951;47.712;9.400;2022-08-07T13:39:44;24.80;99.90
5850;DHT22;2951;47.712;9.400;2022-08-07T13:42:33;24.70;99.90
5850;DHT22;2951;47.712;9.400;2022-08-07T13:45:05;25.20;99.90
5850;DHT22;2951;47.712;9.400;2022-08-07T13:47:56;25.20;99.90
5850;DHT22;2951;47.712;9.400;2022-08-07T13:50:32;25.00;99.90
5850;DHT22;2951;47.712;9.400;2022-08-07T13:53:16;25.00;99.90
5850;DHT22;2951;47.712;9.400;2022-08-07T13:55:45;25.00;99.90
5850;DHT22;2951;47.712;9.400;2022-08-07T13:58:19;24.90;99.90
5850;DHT22;2951;47.712;9.400;2022-08-07T14:01:10;24.80;99.90
5850;DHT22;2951;47.712;9.400;2022-08-07T14:03:37;24.60;99.90
5850;DHT22;2951;47.712;9.400;2022-08-07T14:06:39;24.90;99.90
5850;DHT22;2951;47.712;9.400;2022-08-07T14:09:06;25.30;99.90
5850;DHT22;2951;47.712;9.400;2022-08-07T14:11:36;25.50;99.90
5850;DHT22;2951;47.712;9.400;2022-08-07T14:14:20;25.60;99.90
5850;DHT22;2951;47.712;9.400;2022-08-07T14:16:49;25.20;99.90
5850;DHT22;2951;47.712;9.400;2022-08-07T14:19:17;25.10;99.90
5850;DHT22;2951;47.712;9.400;2022-08-07T14:22:07;25.10;99.90
5850;DHT22;2951;47.712;9.400;2022-08-07T14:25:05;25.00;99.90
5850;DHT22;2951;47.712;9.400;2022-08-07T14:27:37;24.70;99.90
5850;DHT22;2951;47.712;9.400;2022-08-07T14:30:25;24.70;99.90
5850;DHT22;2951;47.712;9.400;2022-08-07T14:32:59;24.40;99.90
5850;DHT22;2951;47.712;9.400;2022-08-07T14:35:28;24.50;99.90
5850;DHT22;2951;47.712;9.400;2022-08-07T14:38:09;24.60;99.90
5850;DHT22;2951;47.712;9.400;2022-08-07T14:40:58;24.60;99.90
5850;DHT22;2951;47.712;9.400;2022-08-07T14:43:27;24.70;99.90
5850;DHT22;2951;47.712;9.400;2022-08-07T14:46:15;24.80;99.90
5850;DHT22;2951;47.712;9.400;2022-08-07T14:48:44;24.70;99.90
5850;DHT22;2951;47.712;9.400;2022-08-07T14:51:17;24.70;99.90
5850;DHT22;2951;47.712;9.400;2022-08-07T14:53:44;24.40;99.90
5850;DHT22;2951;47.712;9.400;2022-08-07T14:56:32;24.30;99.90
5850;DHT22;2951;47.712;9.400;2022-08-07T14:59:05;24.30;99.90
5850;DHT22;2951;47.712;9.400;2022-08-07T15:01:39;24.20;99.90
5850;DHT22;2951;47.712;9.400;2022-08-07T15:04:08;24.30;99.90
5850;DHT22;2951;47.712;9.400;2022-08-07T15:06:37;24.30;99.90
5850;DHT22;2951;47.712;9.400;2022-08-07T15:09:05;24.20;99.90
5850;DHT22;2951;47.712;9.400;2022-08-07T15:11:55;24.20;99.90
5850;DHT22;2951;47.712;9.400;2022-08-07T15:14:26;23.90;99.90
5850;DHT22;2951;47.712;9.400;2022-08-07T15:16:57;23.90;99.90
5850;DHT22;2951;47.712;9.400;2022-08-07T15:19:50;24.00;99.90
5850;DHT22;2951;47.712;9.400;2022-08-07T15:22:41;23.90;99.90
5850;DHT22;2951;47.712;9.400;2022-08-07T15:25:19;23.70;99.90
5850;DHT22;2951;47.712;9.400;2022-08-07T15:27:51;23.50;99.90
5850;DHT22;2951;47.712;9.400;2022-08-07T15:30:33;23.60;99.90
5850;DHT22;2951;47.712;9.400;2022-08-07T15:33:02;23.60;99.90
5850;DHT22;2951;47.712;9.400;2022-08-07T15:35:31;23.60;99.90
5850;DHT22;2951;47.712;9.400;2022-08-07T15:38:19;23.60;99.90
5850;DHT22;2951;47.712;9.400;2022-08-07T15:40:57;23.70;99.90
5850;DHT22;2951;47.712;9.400;2022-08-07T15:43:56;23.80;99.90
5850;DHT22;2951;47.712;9.400;2022-08-07T15:46:23;23.60;99.90
5850;DHT22;2951;47.712;9.400;2022-08-07T15:48:58;23.50;99.90
5850;DHT22;2951;47.712;9.400;2022-08-07T15:51:39;23.60;99.90
5850;DHT22;2951;47.712;9.400;2022-08-07T15:54:33;23.60;99.90
5850;DHT22;2951;47.712;9.400;2022-08-07T15:57:06;23.70;99.90
5850;DHT22;2951;47.712;9.400;2022-08-07T15:59:53;23.70;99.90
5850;DHT22;2951;47.712;9.400;2022-08-07T16:02:25;23.70;99.90
5850;DHT22;2951;47.712;9.400;2022-08-07T16:04:57;23.70;99.90
5850;DHT22;2951;47.712;9.400;2022-08-07T16:07:29;23.70;99.90
5850;DHT22;2951;47.712;9.400;2022-08-07T16:10:21;23.60;99.90
5850;DHT22;2951;47.712;9.400;2022-08-07T16:15:52;23.60;99.90
5850;DHT22;2951;47.712;9.400;2022-08-07T16:21:14;23.60;99.90
5850;DHT22;2951;47.712;9.400;2022-08-07T16:27:11;23.40;99.90
5850;DHT22;2951;47.712;9.400;2022-08-07T16:32:50;23.40;99.90
5850;DHT22;2951;47.712;9.400;2022-08-07T16:36:01;23.30;99.90
5850;DHT22;2951;47.712;9.400;2022-08-07T16:38:37;23.30;99.90
5850;DHT22;2951;47.712;9.400;2022-08-07T16:58:51;23.20;99.90
5850;DHT22;2951;47.712;9.400;2022-08-07T17:04:33;23.10;99.90
5850;DHT22;2951;47.712;9.400;2022-08-07T17:07:11;23.10;99.90
5850;DHT22;2951;47.712;9.400;2022-08-07T17:09:55;23.10;99.90
5850;DHT22;2951;47.712;9.400;2022-08-07T17:15:17;23.00;99.90
5850;DHT22;2951;47.712;9.400;2022-08-07T17:20:30;23.00;99.90
5850;DHT22;2951;47.712;9.400;2022-08-07T17:23:13;23.00;99.90
5850;DHT22;2951;47.712;9.400;2022-08-07T17:28:30;23.00;99.90
5850;DHT22;2951;47.712;9.400;2022-08-07T17:31:09;23.10;99.90
5850;DHT22;2951;47.712;9.400;2022-08-07T17:33:49;23.10;99.90
5850;DHT22;2951;47.712;9.400;2022-08-07T17:36:41;23.10;99.90
5850;DHT22;2951;47.712;9.400;2022-08-07T17:39:25;23.20;99.90
5850;DHT22;2951;47.712;9.400;2022-08-07T17:42:20;23.00;99.90
5850;DHT22;2951;47.712;9.400;2022-08-07T17:44:54;23.10;99.90
5850;DHT22;2951;47.712;9.400;2022-08-07T17:50:21;22.90;99.90
5850;DHT22;2951;47.712;9.400;2022-08-07T17:53:04;23.00;99.90
5850;DHT22;2951;47.712;9.400;2022-08-07T18:01:10;22.90;99.90
5850;DHT22;2951;47.712;9.400;2022-08-07T18:03:50;22.90;99.90
5850;DHT22;2951;47.712;9.400;2022-08-07T18:06:40;22.80;99.90
5850;DHT22;2951;47.712;9.400;2022-08-07T18:09:19;22.80;99.90
5850;DHT22;2951;47.712;9.400;2022-08-07T18:12:13;22.80;99.90
5850;DHT22;2951;47.712;9.400;2022-08-07T18:14:56;22.80;99.90
5850;DHT22;2951;47.712;9.400;2022-08-07T18:17:35;22.80;99.90
5850;DHT22;2951;47.712;9.400;2022-08-07T18:20:27;22.70;99.90
5850;DHT22;2951;47.712;9.400;2022-08-07T18:23:16;22.60;99.90
5850;DHT22;2951;47.712;9.400;2022-08-07T18:26:11;22.60;99.90
5850;DHT22;2951;47.712;9.400;2022-08-07T18:34:18;22.50;99.90
5850;DHT22;2951;47.712;9.400;2022-08-07T18:37:19;22.40;99.90
5850;DHT22;2951;47.712;9.400;2022-08-07T18:43:10;22.40;99.90
5850;DHT22;2951;47.712;9.400;2022-08-07T18:45:42;22.30;99.90
5850;DHT22;2951;47.712;9.400;2022-08-07T18:48:41;22.20;99.90
5850;DHT22;2951;47.712;9.400;2022-08-07T18:54:24;22.00;99.90
5850;DHT22;2951;47.712;9.400;2022-08-07T18:57:07;21.90;99.90
5850;DHT22;2951;47.712;9.400;2022-08-07T19:02:58;21.80;99.90
5850;DHT22;2951;47.712;9.400;2022-08-07T19:05:26;21.70;99.90
5850;DHT22;2951;47.712;9.400;2022-08-07T19:10:45;21.40;99.90
5850;DHT22;2951;47.712;9.400;2022-08-07T19:16:03;21.20;99.90
5850;DHT22;2951;47.712;9.400;2022-08-07T19:19:02;21.10;99.90
5850;DHT22;2951;47.712;9.400;2022-08-07T19:24:14;20.90;99.90
5850;DHT22;2951;47.712;9.400;2022-08-07T19:26:55;20.80;99.90
5850;DHT22;2951;47.712;9.400;2022-08-07T19:29:55;20.80;99.90
5850;DHT22;2951;47.712;9.400;2022-08-07T19:32:43;20.70;99.90
5850;DHT22;2951;47.712;9.400;2022-08-07T19:35:19;20.70;99.90
5850;DHT22;2951;47.712;9.400;2022-08-07T19:37:50;20.50;99.90
5850;DHT22;2951;47.712;9.400;2022-08-07T19:40:23;20.40;99.90
5850;DHT22;2951;47.712;9.400;2022-08-07T19:42:57;20.30;99.90
5850;DHT22;2951;47.712;9.400;2022-08-07T19:45:24;20.20;99.90
5850;DHT22;2951;47.712;9.400;2022-08-07T19:48:13;20.20;99.90
5850;DHT22;2951;47.712;9.400;2022-08-07T19:50:43;20.10;99.90
5850;DHT22;2951;47.712;9.400;2022-08-07T19:53:15;20.00;99.90
5850;DHT22;2951;47.712;9.400;2022-08-07T19:56:04;20.00;99.90
5850;DHT22;2951;47.712;9.400;2022-08-07T19:58:39;20.00;99.90
5850;DHT22;2951;47.712;9.400;2022-08-07T20:01:15;20.00;99.90
5850;DHT22;2951;47.712;9.400;2022-08-07T20:03:44;20.00;99.90
5850;DHT22;2951;47.712;9.400;2022-08-07T20:06:11;19.90;99.90
5850;DHT22;2951;47.712;9.400;2022-08-07T20:08:41;19.90;99.90
5850;DHT22;2951;47.712;9.400;2022-08-07T20:11:16;19.90;99.90
5850;DHT22;2951;47.712;9.400;2022-08-07T20:13:51;19.90;99.90
5850;DHT22;2951;47.712;9.400;2022-08-07T20:16:24;19.80;99.90
5850;DHT22;2951;47.712;9.400;2022-08-07T20:19:01;19.70;99.90
5850;DHT22;2951;47.712;9.400;2022-08-07T20:21:30;19.70;99.90
5850;DHT22;2951;47.712;9.400;2022-08-07T20:24:17;19.70;99.90
5850;DHT22;2951;47.712;9.400;2022-08-07T20:26:45;19.60;99.90
5850;DHT22;2951;47.712;9.400;2022-08-07T20:29:21;19.60;99.90
5850;DHT22;2951;47.712;9.400;2022-08-07T20:32:08;19.50;99.90
5850;DHT22;2951;47.712;9.400;2022-08-07T20:34:37;19.40;99.90
5850;DHT22;2951;47.712;9.400;2022-08-07T20:37:20;19.40;99.90
5850;DHT22;2951;47.712;9.400;2022-08-07T20:39:48;19.30;99.90
5850;DHT22;2951;47.712;9.400;2022-08-07T20:42:28;19.30;99.90